sensor_id;sensor_type;location;lat;lon;timestamp;P1;durP1;ratioP1;P2;durP2;ratioP2
31758;SDS011;36334;51.366;0.020;2022-11-20T00:00:43;15.00;;;6.63;;
31758;SDS011;36334;51.366;0.020;2022-11-20T00:03:29;13.90;;;7.25;;
31758;SDS011;36334;51.366;0.020;2022-11-20T00:06:17;11.13;;;6.65;;
31758;SDS011;36334;51.366;0.020;2022-11-20T00:09:04;16.70;;;6.85;;
31758;SDS011;36334;51.366;0.020;2022-11-20T00:11:50;17.17;;;8.32;;
31758;SDS011;36334;51.366;0.020;2022-11-20T00:14:36;13.77;;;7.00;;
31758;SDS011;36334;51.366;0.020;2022-11-20T00:17:22;17.48;;;6.93;;
31758;SDS011;36334;51.366;0.020;2022-11-20T00:20:09;13.75;;;8.23;;
31758;SDS011;36334;51.366;0.020;2022-11-20T00:22:56;18.05;;;7.05;;
31758;SDS011;36334;51.366;0.020;2022-11-20T00:25:42;13.63;;;7.22;;
31758;SDS011;36334;51.366;0.020;2022-11-20T00:28:28;11.00;;;4.95;;
31758;SDS011;36334;51.366;0.020;2022-11-20T00:31:14;11.32;;;5.85;;
31758;SDS011;36334;51.366;0.020;2022-11-20T00:34:01;10.88;;;5.38;;
31758;SDS011;36334;51.366;0.020;2022-11-20T00:36:47;11.70;;;5.75;;
31758;SDS011;36334;51.366;0.020;2022-11-20T00:39:33;19.25;;;7.88;;
31758;SDS011;36334;51.366;0.020;2022-11-20T00:42:22;10.68;;;5.65;;
31758;SDS011;36334;51.366;0.020;2022-11-20T00:45:08;12.27;;;6.70;;
31758;SDS011;36334;51.366;0.020;2022-11-20T00:47:54;20.25;;;7.25;;
31758;SDS011;36334;51.366;0.020;2022-11-20T00:50:40;18.98;;;6.20;;
31758;SDS011;36334;51.366;0.020;2022-11-20T00:53:26;11.80;;;4.93;;
31758;SDS011;36334;51.366;0.020;2022-11-20T00:56:15;12.00;;;4.55;;
31758;SDS011;36334;51.366;0.020;2022-11-20T00:59:03;11.55;;;5.53;;
31758;SDS011;36334;51.366;0.020;2022-11-20T01:01:49;13.30;;;5.72;;
31758;SDS011;36334;51.366;0.020;2022-11-20T01:04:35;14.50;;;5.90;;
31758;SDS011;36334;51.366;0.020;2022-11-20T01:07:21;11.88;;;4.28;;
31758;SDS011;36334;51.366;0.020;2022-11-20T01:10:07;9.38;;;4.30;;
31758;SDS011;36334;51.366;0.020;2022-11-20T01:12:53;13.50;;;4.78;;
31758;SDS011;36334;51.366;0.020;2022-11-20T01:16:04;6.80;;;4.57;;
31758;SDS011;36334;51.366;0.020;2022-11-20T01:18:57;8.60;;;4.70;;
31758;SDS011;36334;51.366;0.020;2022-11-20T01:21:45;10.50;;;4.15;;
31758;SDS011;36334;51.366;0.020;2022-11-20T01:24:33;9.43;;;5.05;;
31758;SDS011;36334;51.366;0.020;2022-11-20T01:27:20;10.98;;;4.55;;
31758;SDS011;36334;51.366;0.020;2022-11-20T01:30:06;11.75;;;5.10;;
31758;SDS011;36334;51.366;0.020;2022-11-20T01:32:54;11.05;;;4.68;;
31758;SDS011;36334;51.366;0.020;2022-11-20T01:35:41;8.73;;;5.63;;
31758;SDS011;36334;51.366;0.020;2022-11-20T01:38:27;9.43;;;4.22;;
31758;SDS011;36334;51.366;0.020;2022-11-20T01:41:14;7.25;;;4.15;;
31758;SDS011;36334;51.366;0.020;2022-11-20T01:47:41;9.07;;;3.53;;
31758;SDS011;36334;51.366;0.020;2022-11-20T01:50:31;10.60;;;4.23;;
31758;SDS011;36334;51.366;0.020;2022-11-20T01:53:20;13.50;;;5.00;;
31758;SDS011;36334;51.366;0.020;2022-11-20T01:56:11;9.15;;;4.22;;
31758;SDS011;36334;51.366;0.020;2022-11-20T01:58:59;10.07;;;4.55;;
31758;SDS011;36334;51.366;0.020;2022-11-20T02:01:47;7.85;;;4.10;;
31758;SDS011;36334;51.366;0.020;2022-11-20T02:04:34;10.05;;;3.92;;
31758;SDS011;36334;51.366;0.020;2022-11-20T02:07:23;8.63;;;4.10;;
31758;SDS011;36334;51.366;0.020;2022-11-20T02:10:09;8.70;;;4.30;;
31758;SDS011;36334;51.366;0.020;2022-11-20T02:12:56;8.77;;;4.85;;
31758;SDS011;36334;51.366;0.020;2022-11-20T02:16:02;12.43;;;3.30;;
31758;SDS011;36334;51.366;0.020;2022-11-20T02:18:49;10.40;;;3.30;;
31758;SDS011;36334;51.366;0.020;2022-11-20T02:22:19;11.68;;;3.22;;
31758;SDS011;36334;51.366;0.020;2022-11-20T02:24:49;12.00;;;3.58;;
31758;SDS011;36334;51.366;0.020;2022-11-20T02:27:37;9.60;;;3.35;;
31758;SDS011;36334;51.366;0.020;2022-11-20T02:30:22;7.55;;;3.88;;
31758;SDS011;36334;51.366;0.020;2022-11-20T02:33:09;10.70;;;3.92;;
31758;SDS011;36334;51.366;0.020;2022-11-20T02:35:55;7.68;;;3.30;;
31758;SDS011;36334;51.366;0.020;2022-11-20T02:38:41;6.93;;;3.20;;
31758;SDS011;36334;51.366;0.020;2022-11-20T02:41:32;6.68;;;3.13;;
31758;SDS011;36334;51.366;0.020;2022-11-20T02:44:21;9.88;;;3.45;;
31758;SDS011;36334;51.366;0.020;2022-11-20T02:47:07;6.63;;;3.15;;
31758;SDS011;36334;51.366;0.020;2022-11-20T02:49:54;6.28;;;2.80;;
31758;SDS011;36334;51.366;0.020;2022-11-20T02:52:40;10.63;;;3.50;;
31758;SDS011;36334;51.366;0.020;2022-11-20T02:55:27;8.88;;;3.50;;
31758;SDS011;36334;51.366;0.020;2022-11-20T02:58:13;7.45;;;4.03;;
31758;SDS011;36334;51.366;0.020;2022-11-20T03:00:59;9.10;;;3.10;;
31758;SDS011;36334;51.366;0.020;2022-11-20T03:03:45;7.10;;;3.40;;
31758;SDS011;36334;51.366;0.020;2022-11-20T03:06:33;5.80;;;2.75;;
31758;SDS011;36334;51.366;0.020;2022-11-20T03:09:20;6.97;;;2.72;;
31758;SDS011;36334;51.366;0.020;2022-11-20T03:12:06;11.13;;;3.63;;
31758;SDS011;36334;51.366;0.020;2022-11-20T03:14:52;7.47;;;3.00;;
31758;SDS011;36334;51.366;0.020;2022-11-20T03:17:39;10.80;;;4.55;;
31758;SDS011;36334;51.366;0.020;2022-11-20T03:20:26;7.53;;;2.38;;
31758;SDS011;36334;51.366;0.020;2022-11-20T03:23:11;5.07;;;2.05;;
31758;SDS011;36334;51.366;0.020;2022-11-20T03:26:11;9.80;;;2.53;;
31758;SDS011;36334;51.366;0.020;2022-11-20T03:29:00;9.77;;;3.08;;
31758;SDS011;36334;51.366;0.020;2022-11-20T03:31:48;9.23;;;3.03;;
31758;SDS011;36334;51.366;0.020;2022-11-20T03:34:34;6.25;;;2.47;;
31758;SDS011;36334;51.366;0.020;2022-11-20T03:37:22;8.00;;;3.22;;
31758;SDS011;36334;51.366;0.020;2022-11-20T03:40:09;6.25;;;2.80;;
31758;SDS011;36334;51.366;0.020;2022-11-20T03:42:56;9.20;;;2.85;;
31758;SDS011;36334;51.366;0.020;2022-11-20T03:45:42;7.68;;;2.80;;
31758;SDS011;36334;51.366;0.020;2022-11-20T03:48:27;7.97;;;3.17;;
31758;SDS011;36334;51.366;0.020;2022-11-20T03:51:15;7.20;;;2.55;;
31758;SDS011;36334;51.366;0.020;2022-11-20T03:54:04;9.35;;;2.58;;
31758;SDS011;36334;51.366;0.020;2022-11-20T03:56:53;10.30;;;2.80;;
31758;SDS011;36334;51.366;0.020;2022-11-20T03:59:39;11.30;;;3.67;;
31758;SDS011;36334;51.366;0.020;2022-11-20T04:02:25;7.68;;;3.13;;
31758;SDS011;36334;51.366;0.020;2022-11-20T04:05:11;8.20;;;3.55;;
31758;SDS011;36334;51.366;0.020;2022-11-20T04:07:57;10.85;;;3.38;;
31758;SDS011;36334;51.366;0.020;2022-11-20T04:10:43;13.55;;;3.85;;
31758;SDS011;36334;51.366;0.020;2022-11-20T04:13:29;6.57;;;2.63;;
31758;SDS011;36334;51.366;0.020;2022-11-20T04:16:17;6.45;;;3.40;;
31758;SDS011;36334;51.366;0.020;2022-11-20T04:19:06;7.38;;;2.90;;
31758;SDS011;36334;51.366;0.020;2022-11-20T04:21:57;9.40;;;3.88;;
31758;SDS011;36334;51.366;0.020;2022-11-20T04:24:43;7.45;;;3.45;;
31758;SDS011;36334;51.366;0.020;2022-11-20T04:27:30;8.02;;;4.78;;
31758;SDS011;36334;51.366;0.020;2022-11-20T04:30:16;12.13;;;3.63;;
31758;SDS011;36334;51.366;0.020;2022-11-20T04:33:03;9.00;;;3.03;;
31758;SDS011;36334;51.366;0.020;2022-11-20T04:35:49;9.30;;;3.13;;
31758;SDS011;36334;51.366;0.020;2022-11-20T04:38:35;7.00;;;3.10;;
31758;SDS011;36334;51.366;0.020;2022-11-20T04:41:23;9.85;;;3.45;;
31758;SDS011;36334;51.366;0.020;2022-11-20T04:44:11;9.80;;;3.83;;
31758;SDS011;36334;51.366;0.020;2022-11-20T04:46:56;6.30;;;3.70;;
31758;SDS011;36334;51.366;0.020;2022-11-20T04:49:42;7.00;;;4.25;;
31758;SDS011;36334;51.366;0.020;2022-11-20T04:52:28;9.52;;;3.90;;
31758;SDS011;36334;51.366;0.020;2022-11-20T04:55:14;8.70;;;3.97;;
31758;SDS011;36334;51.366;0.020;2022-11-20T04:58:01;6.85;;;3.67;;
31758;SDS011;36334;51.366;0.020;2022-11-20T05:00:47;6.22;;;3.33;;
31758;SDS011;36334;51.366;0.020;2022-11-20T05:03:33;9.88;;;3.92;;
31758;SDS011;36334;51.366;0.020;2022-11-20T05:06:26;7.30;;;3.57;;
31758;SDS011;36334;51.366;0.020;2022-11-20T05:09:12;8.15;;;3.90;;
31758;SDS011;36334;51.366;0.020;2022-11-20T05:11:58;6.30;;;3.40;;
31758;SDS011;36334;51.366;0.020;2022-11-20T05:14:45;10.93;;;3.30;;
31758;SDS011;36334;51.366;0.020;2022-11-20T05:17:31;10.50;;;4.63;;
31758;SDS011;36334;51.366;0.020;2022-11-20T05:20:18;8.93;;;3.05;;
31758;SDS011;36334;51.366;0.020;2022-11-20T05:23:04;8.35;;;3.20;;
31758;SDS011;36334;51.366;0.020;2022-11-20T05:25:54;6.03;;;3.20;;
31758;SDS011;36334;51.366;0.020;2022-11-20T05:28:44;12.32;;;4.18;;
31758;SDS011;36334;51.366;0.020;2022-11-20T05:31:30;6.22;;;3.65;;
31758;SDS011;36334;51.366;0.020;2022-11-20T05:34:17;6.85;;;4.30;;
31758;SDS011;36334;51.366;0.020;2022-11-20T05:37:03;7.57;;;3.53;;
31758;SDS011;36334;51.366;0.020;2022-11-20T05:39:49;9.32;;;3.65;;
31758;SDS011;36334;51.366;0.020;2022-11-20T05:42:35;7.55;;;3.95;;
31758;SDS011;36334;51.366;0.020;2022-11-20T05:45:21;10.57;;;4.82;;
31758;SDS011;36334;51.366;0.020;2022-11-20T05:48:07;8.40;;;3.58;;
31758;SDS011;36334;51.366;0.020;2022-11-20T05:50:53;8.55;;;4.60;;
31758;SDS011;36334;51.366;0.020;2022-11-20T05:53:39;8.32;;;4.05;;
31758;SDS011;36334;51.366;0.020;2022-11-20T05:56:36;8.63;;;4.47;;
31758;SDS011;36334;51.366;0.020;2022-11-20T05:59:22;6.57;;;4.15;;
31758;SDS011;36334;51.366;0.020;2022-11-20T06:02:08;9.57;;;4.88;;
31758;SDS011;36334;51.366;0.020;2022-11-20T06:04:54;7.50;;;4.75;;
31758;SDS011;36334;51.366;0.020;2022-11-20T06:07:41;7.28;;;4.82;;
31758;SDS011;36334;51.366;0.020;2022-11-20T06:10:27;13.15;;;5.82;;
31758;SDS011;36334;51.366;0.020;2022-11-20T06:13:13;6.93;;;4.68;;
31758;SDS011;36334;51.366;0.020;2022-11-20T06:16:00;9.50;;;5.38;;
31758;SDS011;36334;51.366;0.020;2022-11-20T06:18:46;10.60;;;5.18;;
31758;SDS011;36334;51.366;0.020;2022-11-20T06:21:32;11.18;;;5.65;;
31758;SDS011;36334;51.366;0.020;2022-11-20T06:24:19;9.63;;;5.43;;
31758;SDS011;36334;51.366;0.020;2022-11-20T06:27:05;8.95;;;5.10;;
31758;SDS011;36334;51.366;0.020;2022-11-20T06:29:51;12.30;;;5.25;;
31758;SDS011;36334;51.366;0.020;2022-11-20T06:32:37;8.63;;;5.10;;
31758;SDS011;36334;51.366;0.020;2022-11-20T06:35:23;9.15;;;5.43;;
31758;SDS011;36334;51.366;0.020;2022-11-20T06:38:09;7.63;;;4.15;;
31758;SDS011;36334;51.366;0.020;2022-11-20T06:40:55;8.50;;;4.43;;
31758;SDS011;36334;51.366;0.020;2022-11-20T06:43:42;7.25;;;4.20;;
31758;SDS011;36334;51.366;0.020;2022-11-20T06:46:28;14.85;;;6.18;;
31758;SDS011;36334;51.366;0.020;2022-11-20T06:49:15;7.97;;;4.88;;
31758;SDS011;36334;51.366;0.020;2022-11-20T06:52:00;10.52;;;4.50;;
31758;SDS011;36334;51.366;0.020;2022-11-20T06:54:47;9.95;;;5.15;;
31758;SDS011;36334;51.366;0.020;2022-11-20T06:57:33;10.98;;;5.20;;
31758;SDS011;36334;51.366;0.020;2022-11-20T07:00:19;7.07;;;5.05;;
31758;SDS011;36334;51.366;0.020;2022-11-20T07:03:05;7.60;;;5.40;;
31758;SDS011;36334;51.366;0.020;2022-11-20T07:05:56;7.00;;;4.80;;
31758;SDS011;36334;51.366;0.020;2022-11-20T07:08:43;6.30;;;4.18;;
31758;SDS011;36334;51.366;0.020;2022-11-20T07:11:29;10.60;;;4.97;;
31758;SDS011;36334;51.366;0.020;2022-11-20T07:14:15;5.43;;;3.78;;
31758;SDS011;36334;51.366;0.020;2022-11-20T07:17:01;5.55;;;3.00;;
31758;SDS011;36334;51.366;0.020;2022-11-20T07:19:50;6.10;;;3.45;;
31758;SDS011;36334;51.366;0.020;2022-11-20T07:22:40;5.75;;;3.63;;
31758;SDS011;36334;51.366;0.020;2022-11-20T07:25:27;4.88;;;2.63;;
31758;SDS011;36334;51.366;0.020;2022-11-20T07:28:13;5.38;;;3.05;;
31758;SDS011;36334;51.366;0.020;2022-11-20T07:30:59;6.63;;;3.20;;
31758;SDS011;36334;51.366;0.020;2022-11-20T07:33:47;6.30;;;2.80;;
31758;SDS011;36334;51.366;0.020;2022-11-20T07:36:33;4.95;;;3.00;;
31758;SDS011;36334;51.366;0.020;2022-11-20T07:39:19;5.53;;;3.00;;
31758;SDS011;36334;51.366;0.020;2022-11-20T07:42:06;5.30;;;2.55;;
31758;SDS011;36334;51.366;0.020;2022-11-20T07:44:56;6.47;;;2.67;;
31758;SDS011;36334;51.366;0.020;2022-11-20T07:47:42;5.32;;;2.47;;
31758;SDS011;36334;51.366;0.020;2022-11-20T07:50:29;3.35;;;2.17;;
31758;SDS011;36334;51.366;0.020;2022-11-20T07:53:16;5.43;;;1.80;;
31758;SDS011;36334;51.366;0.020;2022-11-20T07:56:08;4.05;;;1.98;;
31758;SDS011;36334;51.366;0.020;2022-11-20T07:58:56;4.63;;;2.78;;
31758;SDS011;36334;51.366;0.020;2022-11-20T08:01:42;5.90;;;2.88;;
31758;SDS011;36334;51.366;0.020;2022-11-20T08:04:28;8.45;;;4.72;;
31758;SDS011;36334;51.366;0.020;2022-11-20T08:07:14;9.57;;;4.43;;
31758;SDS011;36334;51.366;0.020;2022-11-20T08:10:00;3.47;;;2.17;;
31758;SDS011;36334;51.366;0.020;2022-11-20T08:12:47;5.10;;;2.95;;
31758;SDS011;36334;51.366;0.020;2022-11-20T08:15:53;15.95;;;8.23;;
31758;SDS011;36334;51.366;0.020;2022-11-20T08:18:39;12.88;;;7.15;;
31758;SDS011;36334;51.366;0.020;2022-11-20T08:21:27;5.30;;;3.40;;
31758;SDS011;36334;51.366;0.020;2022-11-20T08:24:18;7.40;;;3.38;;
31758;SDS011;36334;51.366;0.020;2022-11-20T08:27:04;5.53;;;3.05;;
31758;SDS011;36334;51.366;0.020;2022-11-20T08:29:50;3.00;;;2.20;;
31758;SDS011;36334;51.366;0.020;2022-11-20T08:32:37;5.68;;;3.78;;
31758;SDS011;36334;51.366;0.020;2022-11-20T08:35:23;4.10;;;2.83;;
31758;SDS011;36334;51.366;0.020;2022-11-20T08:38:09;3.13;;;2.10;;
31758;SDS011;36334;51.366;0.020;2022-11-20T08:40:58;6.43;;;2.92;;
31758;SDS011;36334;51.366;0.020;2022-11-20T08:44:07;4.78;;;2.00;;
31758;SDS011;36334;51.366;0.020;2022-11-20T08:47:00;3.92;;;2.22;;
31758;SDS011;36334;51.366;0.020;2022-11-20T08:49:48;4.70;;;2.70;;
31758;SDS011;36334;51.366;0.020;2022-11-20T08:52:35;4.38;;;2.28;;
31758;SDS011;36334;51.366;0.020;2022-11-20T08:55:24;7.72;;;3.28;;
31758;SDS011;36334;51.366;0.020;2022-11-20T08:58:13;4.03;;;2.70;;
31758;SDS011;36334;51.366;0.020;2022-11-20T09:01:12;4.40;;;3.13;;
31758;SDS011;36334;51.366;0.020;2022-11-20T09:03:59;5.45;;;3.45;;
31758;SDS011;36334;51.366;0.020;2022-11-20T09:06:45;6.32;;;3.70;;
31758;SDS011;36334;51.366;0.020;2022-11-20T09:09:36;6.50;;;3.90;;
31758;SDS011;36334;51.366;0.020;2022-11-20T09:12:27;6.57;;;3.78;;
31758;SDS011;36334;51.366;0.020;2022-11-20T09:15:13;6.97;;;4.22;;
31758;SDS011;36334;51.366;0.020;2022-11-20T09:18:01;5.75;;;4.05;;
31758;SDS011;36334;51.366;0.020;2022-11-20T09:20:49;7.88;;;5.30;;
31758;SDS011;36334;51.366;0.020;2022-11-20T09:23:35;6.40;;;4.43;;
31758;SDS011;36334;51.366;0.020;2022-11-20T09:26:22;7.70;;;4.93;;
31758;SDS011;36334;51.366;0.020;2022-11-20T09:29:08;7.53;;;4.25;;
31758;SDS011;36334;51.366;0.020;2022-11-20T09:31:54;10.35;;;5.20;;
31758;SDS011;36334;51.366;0.020;2022-11-20T09:34:41;9.80;;;5.00;;
31758;SDS011;36334;51.366;0.020;2022-11-20T09:37:27;10.13;;;4.63;;
31758;SDS011;36334;51.366;0.020;2022-11-20T09:40:32;9.95;;;5.05;;
31758;SDS011;36334;51.366;0.020;2022-11-20T09:43:37;9.93;;;4.97;;
31758;SDS011;36334;51.366;0.020;2022-11-20T09:46:46;10.93;;;6.15;;
31758;SDS011;36334;51.366;0.020;2022-11-20T09:56:09;14.43;;;7.47;;
31758;SDS011;36334;51.366;0.020;2022-11-20T09:58:57;16.65;;;6.93;;
31758;SDS011;36334;51.366;0.020;2022-11-20T10:01:48;10.63;;;5.45;;
31758;SDS011;36334;51.366;0.020;2022-11-20T10:04:35;17.08;;;6.43;;
31758;SDS011;36334;51.366;0.020;2022-11-20T10:13:36;13.38;;;6.38;;
31758;SDS011;36334;51.366;0.020;2022-11-20T10:16:55;11.63;;;6.03;;
31758;SDS011;36334;51.366;0.020;2022-11-20T10:19:51;16.92;;;6.38;;
31758;SDS011;36334;51.366;0.020;2022-11-20T10:26:17;14.85;;;6.85;;
31758;SDS011;36334;51.366;0.020;2022-11-20T10:29:18;14.75;;;5.32;;
31758;SDS011;36334;51.366;0.020;2022-11-20T10:32:09;11.18;;;5.63;;
31758;SDS011;36334;51.366;0.020;2022-11-20T10:35:01;15.32;;;5.53;;
31758;SDS011;36334;51.366;0.020;2022-11-20T10:37:51;14.52;;;6.88;;
31758;SDS011;36334;51.366;0.020;2022-11-20T10:40:42;10.23;;;5.20;;
31758;SDS011;36334;51.366;0.020;2022-11-20T10:43:35;21.52;;;7.32;;
31758;SDS011;36334;51.366;0.020;2022-11-20T10:46:21;15.77;;;5.93;;
31758;SDS011;36334;51.366;0.020;2022-11-20T10:49:13;14.73;;;5.57;;
31758;SDS011;36334;51.366;0.020;2022-11-20T10:55:16;15.93;;;7.53;;
31758;SDS011;36334;51.366;0.020;2022-11-20T11:01:25;13.63;;;4.43;;
31758;SDS011;36334;51.366;0.020;2022-11-20T11:04:02;15.32;;;7.53;;
31758;SDS011;36334;51.366;0.020;2022-11-20T11:06:48;12.73;;;6.47;;
31758;SDS011;36334;51.366;0.020;2022-11-20T11:09:37;17.85;;;5.28;;
31758;SDS011;36334;51.366;0.020;2022-11-20T11:12:28;12.45;;;4.70;;
31758;SDS011;36334;51.366;0.020;2022-11-20T11:18:33;15.68;;;4.88;;
31758;SDS011;36334;51.366;0.020;2022-11-20T11:21:23;16.83;;;3.75;;
31758;SDS011;36334;51.366;0.020;2022-11-20T11:24:15;16.90;;;3.85;;
31758;SDS011;36334;51.366;0.020;2022-11-20T11:27:29;14.70;;;4.75;;
31758;SDS011;36334;51.366;0.020;2022-11-20T11:30:16;14.75;;;5.05;;
31758;SDS011;36334;51.366;0.020;2022-11-20T11:33:17;18.17;;;4.38;;
31758;SDS011;36334;51.366;0.020;2022-11-20T11:36:16;15.88;;;4.43;;
31758;SDS011;36334;51.366;0.020;2022-11-20T11:39:08;21.30;;;5.07;;
31758;SDS011;36334;51.366;0.020;2022-11-20T11:41:59;23.10;;;4.10;;
31758;SDS011;36334;51.366;0.020;2022-11-20T11:44:47;15.07;;;4.75;;
31758;SDS011;36334;51.366;0.020;2022-11-20T11:47:52;14.35;;;4.13;;
31758;SDS011;36334;51.366;0.020;2022-11-20T11:50:47;16.77;;;4.97;;
31758;SDS011;36334;51.366;0.020;2022-11-20T11:53:35;16.87;;;4.33;;
31758;SDS011;36334;51.366;0.020;2022-11-20T11:56:26;19.75;;;4.80;;
31758;SDS011;36334;51.366;0.020;2022-11-20T11:59:23;17.75;;;4.63;;
31758;SDS011;36334;51.366;0.020;2022-11-20T12:02:25;15.70;;;4.43;;
31758;SDS011;36334;51.366;0.020;2022-11-20T12:05:27;13.88;;;5.90;;
31758;SDS011;36334;51.366;0.020;2022-11-20T12:17:20;20.15;;;4.75;;
31758;SDS011;36334;51.366;0.020;2022-11-20T12:20:11;16.55;;;5.30;;
31758;SDS011;36334;51.366;0.020;2022-11-20T12:25:50;19.50;;;5.50;;
31758;SDS011;36334;51.366;0.020;2022-11-20T12:31:39;20.00;;;4.47;;
31758;SDS011;36334;51.366;0.020;2022-11-20T12:34:56;19.30;;;4.05;;
31758;SDS011;36334;51.366;0.020;2022-11-20T12:51:26;13.35;;;4.53;;
31758;SDS011;36334;51.366;0.020;2022-11-20T13:00:41;18.20;;;4.05;;
31758;SDS011;36334;51.366;0.020;2022-11-20T13:06:29;14.40;;;4.63;;
31758;SDS011;36334;51.366;0.020;2022-11-20T13:09:16;17.65;;;4.63;;
31758;SDS011;36334;51.366;0.020;2022-11-20T13:12:29;12.20;;;4.50;;
31758;SDS011;36334;51.366;0.020;2022-11-20T13:18:28;19.92;;;5.03;;
31758;SDS011;36334;51.366;0.020;2022-11-20T13:21:22;16.48;;;3.33;;
31758;SDS011;36334;51.366;0.020;2022-11-20T13:30:14;13.10;;;3.35;;
31758;SDS011;36334;51.366;0.020;2022-11-20T13:33:07;14.48;;;5.22;;
31758;SDS011;36334;51.366;0.020;2022-11-20T13:36:19;20.83;;;5.10;;
31758;SDS011;36334;51.366;0.020;2022-11-20T13:45:07;17.90;;;4.25;;
31758;SDS011;36334;51.366;0.020;2022-11-20T13:47:56;11.82;;;4.65;;
31758;SDS011;36334;51.366;0.020;2022-11-20T13:53:53;13.00;;;3.83;;
31758;SDS011;36334;51.366;0.020;2022-11-20T14:05:53;14.30;;;3.83;;
31758;SDS011;36334;51.366;0.020;2022-11-20T14:08:50;13.40;;;3.97;;
31758;SDS011;36334;51.366;0.020;2022-11-20T14:11:45;14.02;;;3.40;;
31758;SDS011;36334;51.366;0.020;2022-11-20T14:14:32;18.52;;;3.97;;
31758;SDS011;36334;51.366;0.020;2022-11-20T14:17:20;23.00;;;5.40;;
31758;SDS011;36334;51.366;0.020;2022-11-20T14:20:12;13.15;;;4.00;;
31758;SDS011;36334;51.366;0.020;2022-11-20T14:23:00;16.30;;;4.70;;
31758;SDS011;36334;51.366;0.020;2022-11-20T14:25:46;13.82;;;4.57;;
31758;SDS011;36334;51.366;0.020;2022-11-20T14:28:32;16.17;;;5.20;;
31758;SDS011;36334;51.366;0.020;2022-11-20T14:31:21;13.07;;;4.10;;
31758;SDS011;36334;51.366;0.020;2022-11-20T14:34:23;16.13;;;5.18;;
31758;SDS011;36334;51.366;0.020;2022-11-20T14:37:13;10.85;;;3.38;;
31758;SDS011;36334;51.366;0.020;2022-11-20T14:40:20;14.02;;;4.95;;
31758;SDS011;36334;51.366;0.020;2022-11-20T14:43:24;13.27;;;4.90;;
31758;SDS011;36334;51.366;0.020;2022-11-20T14:46:11;28.55;;;6.20;;
31758;SDS011;36334;51.366;0.020;2022-11-20T14:49:00;18.52;;;4.30;;
31758;SDS011;36334;51.366;0.020;2022-11-20T14:51:46;14.57;;;3.88;;
31758;SDS011;36334;51.366;0.020;2022-11-20T14:54:48;14.80;;;5.57;;
31758;SDS011;36334;51.366;0.020;2022-11-20T14:57:35;10.32;;;3.67;;
31758;SDS011;36334;51.366;0.020;2022-11-20T15:00:22;12.52;;;3.75;;
31758;SDS011;36334;51.366;0.020;2022-11-20T15:03:14;16.13;;;5.32;;
31758;SDS011;36334;51.366;0.020;2022-11-20T15:06:01;13.20;;;5.00;;
31758;SDS011;36334;51.366;0.020;2022-11-20T15:08:51;19.85;;;4.78;;
31758;SDS011;36334;51.366;0.020;2022-11-20T15:11:38;12.80;;;4.28;;
31758;SDS011;36334;51.366;0.020;2022-11-20T15:14:25;13.05;;;4.53;;
31758;SDS011;36334;51.366;0.020;2022-11-20T15:17:13;19.80;;;4.18;;
31758;SDS011;36334;51.366;0.020;2022-11-20T15:19:59;14.68;;;5.15;;
31758;SDS011;36334;51.366;0.020;2022-11-20T15:22:48;14.57;;;4.28;;
31758;SDS011;36334;51.366;0.020;2022-11-20T15:25:34;18.23;;;5.75;;
31758;SDS011;36334;51.366;0.020;2022-11-20T15:28:21;20.48;;;6.93;;
31758;SDS011;36334;51.366;0.020;2022-11-20T15:31:13;14.82;;;5.13;;
31758;SDS011;36334;51.366;0.020;2022-11-20T15:34:00;16.48;;;4.70;;
31758;SDS011;36334;51.366;0.020;2022-11-20T15:36:46;16.20;;;4.25;;
31758;SDS011;36334;51.366;0.020;2022-11-20T15:39:32;13.40;;;4.43;;
31758;SDS011;36334;51.366;0.020;2022-11-20T15:42:18;13.27;;;4.68;;
31758;SDS011;36334;51.366;0.020;2022-11-20T15:45:04;13.85;;;4.28;;
31758;SDS011;36334;51.366;0.020;2022-11-20T15:47:53;18.83;;;5.13;;
31758;SDS011;36334;51.366;0.020;2022-11-20T15:50:59;19.95;;;4.97;;
31758;SDS011;36334;51.366;0.020;2022-11-20T15:53:47;17.42;;;5.50;;
31758;SDS011;36334;51.366;0.020;2022-11-20T15:56:33;18.05;;;5.20;;
31758;SDS011;36334;51.366;0.020;2022-11-20T15:59:19;16.48;;;4.60;;
31758;SDS011;36334;51.366;0.020;2022-11-20T16:02:13;17.13;;;5.28;;
31758;SDS011;36334;51.366;0.020;2022-11-20T16:05:04;11.40;;;5.03;;
31758;SDS011;36334;51.366;0.020;2022-11-20T16:07:56;11.88;;;4.40;;
31758;SDS011;36334;51.366;0.020;2022-11-20T16:10:43;16.60;;;4.63;;
31758;SDS011;36334;51.366;0.020;2022-11-20T16:13:30;20.73;;;4.38;;
31758;SDS011;36334;51.366;0.020;2022-11-20T16:16:36;16.67;;;5.22;;
31758;SDS011;36334;51.366;0.020;2022-11-20T16:19:22;15.32;;;4.55;;
31758;SDS011;36334;51.366;0.020;2022-11-20T16:22:10;17.38;;;3.90;;
31758;SDS011;36334;51.366;0.020;2022-11-20T16:24:56;17.55;;;4.07;;
31758;SDS011;36334;51.366;0.020;2022-11-20T16:27:43;15.70;;;6.10;;
31758;SDS011;36334;51.366;0.020;2022-11-20T16:30:30;13.05;;;4.65;;
31758;SDS011;36334;51.366;0.020;2022-11-20T16:33:17;17.58;;;4.18;;
31758;SDS011;36334;51.366;0.020;2022-11-20T16:36:10;11.45;;;4.35;;
31758;SDS011;36334;51.366;0.020;2022-11-20T16:38:59;15.45;;;4.95;;
31758;SDS011;36334;51.366;0.020;2022-11-20T16:41:47;12.55;;;6.60;;
31758;SDS011;36334;51.366;0.020;2022-11-20T16:44:33;16.17;;;5.43;;
31758;SDS011;36334;51.366;0.020;2022-11-20T16:47:19;14.93;;;6.00;;
31758;SDS011;36334;51.366;0.020;2022-11-20T16:50:05;15.27;;;5.18;;
31758;SDS011;36334;51.366;0.020;2022-11-20T16:52:51;14.73;;;4.72;;
31758;SDS011;36334;51.366;0.020;2022-11-20T16:55:37;14.88;;;4.35;;
31758;SDS011;36334;51.366;0.020;2022-11-20T16:58:23;16.77;;;5.22;;
31758;SDS011;36334;51.366;0.020;2022-11-20T17:01:10;16.27;;;4.43;;
31758;SDS011;36334;51.366;0.020;2022-11-20T17:04:02;38.78;;;7.88;;
31758;SDS011;36334;51.366;0.020;2022-11-20T17:06:50;18.17;;;5.60;;
31758;SDS011;36334;51.366;0.020;2022-11-20T17:09:36;19.98;;;5.18;;
31758;SDS011;36334;51.366;0.020;2022-11-20T17:12:22;13.13;;;3.72;;
31758;SDS011;36334;51.366;0.020;2022-11-20T17:15:08;14.93;;;5.28;;
31758;SDS011;36334;51.366;0.020;2022-11-20T17:17:58;16.13;;;4.88;;
31758;SDS011;36334;51.366;0.020;2022-11-20T17:20:50;13.95;;;4.55;;
31758;SDS011;36334;51.366;0.020;2022-11-20T17:23:37;13.15;;;4.28;;
31758;SDS011;36334;51.366;0.020;2022-11-20T17:26:25;13.13;;;5.25;;
31758;SDS011;36334;51.366;0.020;2022-11-20T17:29:13;15.63;;;6.07;;
31758;SDS011;36334;51.366;0.020;2022-11-20T17:32:01;10.23;;;4.72;;
31758;SDS011;36334;51.366;0.020;2022-11-20T17:34:47;12.43;;;4.63;;
31758;SDS011;36334;51.366;0.020;2022-11-20T17:37:33;17.45;;;4.25;;
31758;SDS011;36334;51.366;0.020;2022-11-20T17:40:19;12.50;;;4.43;;
31758;SDS011;36334;51.366;0.020;2022-11-20T17:43:11;19.52;;;4.90;;
31758;SDS011;36334;51.366;0.020;2022-11-20T17:45:57;17.70;;;4.68;;
31758;SDS011;36334;51.366;0.020;2022-11-20T17:48:44;11.10;;;5.05;;
31758;SDS011;36334;51.366;0.020;2022-11-20T17:51:32;13.00;;;4.72;;
31758;SDS011;36334;51.366;0.020;2022-11-20T17:54:22;11.05;;;3.78;;
31758;SDS011;36334;51.366;0.020;2022-11-20T17:57:08;12.45;;;3.90;;
31758;SDS011;36334;51.366;0.020;2022-11-20T18:00:13;14.18;;;5.32;;
31758;SDS011;36334;51.366;0.020;2022-11-20T18:03:01;9.77;;;4.18;;
31758;SDS011;36334;51.366;0.020;2022-11-20T18:05:47;13.88;;;4.18;;
31758;SDS011;36334;51.366;0.020;2022-11-20T18:08:33;10.90;;;3.83;;
31758;SDS011;36334;51.366;0.020;2022-11-20T18:11:21;9.88;;;3.45;;
31758;SDS011;36334;51.366;0.020;2022-11-20T18:14:13;8.93;;;2.83;;
31758;SDS011;36334;51.366;0.020;2022-11-20T18:17:16;11.20;;;5.13;;
31758;SDS011;36334;51.366;0.020;2022-11-20T18:20:02;11.55;;;3.25;;
31758;SDS011;36334;51.366;0.020;2022-11-20T18:23:09;8.85;;;3.47;;
31758;SDS011;36334;51.366;0.020;2022-11-20T18:25:58;11.18;;;4.00;;